createdAt,value
2018-11-21T00:00:48.855Z,100360.22
2018-11-21T00:03:17.741Z,100362.75
2018-11-21T00:05:46.578Z,100363.88
2018-11-21T00:08:15.629Z,100361.36
2018-11-21T00:10:44.738Z,100365.98
2018-11-21T00:13:13.575Z,100362.75
2018-11-21T00:15:43.018Z,100363.92
2018-11-21T00:18:12.117Z,100358.94
2018-11-21T00:20:40.886Z,100368.66
2018-11-21T00:23:10.103Z,100369.13
2018-11-21T00:25:39.411Z,100373.94
2018-11-21T00:28:08.153Z,100374.92
2018-11-21T00:30:37.587Z,100379.37
2018-11-21T00:33:06.113Z,100387.61
2018-11-21T00:35:35.682Z,100398.03
2018-11-21T00:38:04.887Z,100392.89
2018-11-21T00:40:33.127Z,100396.29
2018-11-21T00:43:02.392Z,100385.09
2018-11-21T00:45:32.094Z,100389.25
2018-11-21T00:48:01.382Z,100382.88
2018-11-21T00:50:29.891Z,100375.66
2018-11-21T00:52:58.848Z,100370.30
2018-11-21T00:55:27.376Z,100363.46
2018-11-21T00:57:56.521Z,100363.16
2018-11-21T01:00:25.418Z,100366.19
2018-11-21T01:02:54.331Z,100365.93
2018-11-21T01:05:23.481Z,100378.72
2018-11-21T01:07:52.934Z,100375.59
2018-11-21T01:10:21.487Z,100381.41
2018-11-21T01:12:51.699Z,100386.33
2018-11-21T01:15:20.503Z,100395.89
2018-11-21T01:17:50.115Z,100408.19
2018-11-21T01:20:18.623Z,100415.39
2018-11-21T01:22:48.210Z,100426.28
2018-11-21T01:25:17.437Z,100423.50
2018-11-21T01:27:46.394Z,100427.11
2018-11-21T01:30:14.611Z,100424.95
2018-11-21T01:32:51.837Z,100429.46
2018-11-21T01:35:21.607Z,100427.61
2018-11-21T01:37:50.673Z,100430.96
2018-11-21T01:40:20.091Z,100433.74
2018-11-21T01:42:48.584Z,100444.27
2018-11-21T01:45:30.726Z,100452.73
2018-11-21T01:47:58.995Z,100443.70
2018-11-21T01:50:28.256Z,100450.20
2018-11-21T01:52:57.071Z,100440.81
2018-11-21T01:55:26.394Z,100444.86
2018-11-21T01:57:54.629Z,100438.78
2018-11-21T02:00:23.265Z,100443.83
2018-11-21T02:02:53.361Z,100455.62
2018-11-21T02:05:21.664Z,100457.00
2018-11-21T02:07:50.829Z,100455.04
2018-11-21T02:10:19.638Z,100461.97
2018-11-21T02:12:47.875Z,100475.30
2018-11-21T02:15:16.385Z,100478.03
2018-11-21T02:17:45.759Z,100461.81
2018-11-21T02:20:14.727Z,100461.51
2018-11-21T02:22:44.088Z,100459.46
2018-11-21T02:25:13.101Z,100460.05
2018-11-21T02:27:41.729Z,100475.70
2018-11-21T02:30:10.560Z,100457.59
2018-11-21T02:32:40.276Z,100468.05
2018-11-21T02:35:09.560Z,100472.17
2018-11-21T02:37:38.319Z,100470.48
2018-11-21T02:40:07.629Z,100477.13
2018-11-21T02:42:36.779Z,100487.61
2018-11-21T02:45:05.673Z,100487.08
2018-11-21T02:47:34.259Z,100489.24
2018-11-21T02:50:04.060Z,100494.96
2018-11-21T02:52:32.728Z,100483.56
2018-11-21T02:55:07.958Z,100491.98
2018-11-21T02:57:37.091Z,100486.94
2018-11-21T03:00:18.234Z,100482.81
2018-11-21T03:02:47.060Z,100489.25
2018-11-21T03:05:16.940Z,100491.12
2018-11-21T03:07:55.634Z,100497.23
2018-11-21T03:10:25.095Z,100503.02
2018-11-21T03:12:54.464Z,100499.27
2018-11-21T03:15:23.949Z,100501.86
2018-11-21T03:17:54.547Z,100506.13
2018-11-21T03:20:22.256Z,100508.41
2018-11-21T03:22:51.575Z,100504.02
2018-11-21T03:25:20.078Z,100501.75
2018-11-21T03:27:48.354Z,100497.14
2018-11-21T03:30:17.558Z,100488.96
2018-11-21T03:32:46.636Z,100502.57
2018-11-21T03:35:15.394Z,100513.12
2018-11-21T03:37:44.901Z,100520.62
2018-11-21T03:40:20.657Z,100524.52
2018-11-21T03:42:49.786Z,100528.90
2018-11-21T03:45:20.934Z,100528.07
2018-11-21T03:47:49.168Z,100539.48
2018-11-21T03:50:18.584Z,100545.55
2018-11-21T03:52:47.127Z,100546.83
2018-11-21T03:55:16.611Z,100549.88
2018-11-21T03:57:44.842Z,100549.58
2018-11-21T04:00:14.048Z,100542.58
2018-11-21T04:02:42.930Z,100550.69
2018-11-21T04:05:11.980Z,100553.26
2018-11-21T04:07:41.010Z,100560.56
2018-11-21T04:10:12.176Z,100560.91
2018-11-21T04:12:41.730Z,100551.05
2018-11-21T04:15:12.667Z,100548.28
2018-11-21T04:17:42.852Z,100557.05
2018-11-21T04:20:12.121Z,100567.12
2018-11-21T04:22:41.424Z,100578.55
2018-11-21T04:25:11.934Z,100574.19
2018-11-21T04:27:41.367Z,100576.69
2018-11-21T04:30:11.262Z,100577.91
2018-11-21T04:32:41.365Z,100571.89
2018-11-21T04:35:10.541Z,100567.74
2018-11-21T04:37:39.350Z,100576.88
2018-11-21T04:40:08.332Z,100589.61
2018-11-21T04:42:38.112Z,100583.98
2018-11-21T04:45:08.661Z,100598.54
2018-11-21T04:47:37.255Z,100601.57
2018-11-21T04:50:07.177Z,100602.11
2018-11-21T04:52:36.977Z,100609.58
2018-11-21T04:55:07.059Z,100606.58
2018-11-21T04:57:35.598Z,100612.37
2018-11-21T05:00:04.846Z,100608.98
2018-11-21T05:02:33.448Z,100609.12
2018-11-21T05:05:03.151Z,100614.72
2018-11-21T05:07:32.937Z,100613.17
2018-11-21T05:10:02.027Z,100608.56
2018-11-21T05:12:30.643Z,100609.05
2018-11-21T05:15:00.268Z,100609.75
2018-11-21T05:17:29.648Z,100627.37
2018-11-21T05:22:26.990Z,100623.16
2018-11-21T05:24:56.191Z,100621.34
2018-11-21T05:27:24.989Z,100616.83
2018-11-21T05:29:54.690Z,100616.27
2018-11-21T05:32:24.123Z,100619.48
2018-11-21T05:34:53.014Z,100630.42
2018-11-21T05:37:22.155Z,100631.25
2018-11-21T05:39:51.001Z,100629.53
2018-11-21T05:42:27.172Z,100637.27
2018-11-21T05:44:56.351Z,100649.91
2018-11-21T05:47:24.963Z,100655.66
2018-11-21T05:49:54.828Z,100667.28
2018-11-21T05:52:24.385Z,100652.05
2018-11-21T05:54:54.053Z,100663.45
2018-11-21T05:57:22.574Z,100670.46
2018-11-21T05:59:52.868Z,100674.63
2018-11-21T06:02:22.461Z,100674.31
2018-11-21T06:04:51.120Z,100683.91
2018-11-21T06:07:21.340Z,100678.27
2018-11-21T06:09:50.340Z,100685.69
2018-11-21T06:12:19.158Z,100688.91
2018-11-21T06:14:48.847Z,100697.23
2018-11-21T06:17:19.254Z,100691.47
2018-11-21T06:19:47.721Z,100702.30
2018-11-21T06:22:16.880Z,100703.77
2018-11-21T06:24:46.151Z,100700.23
2018-11-21T06:27:14.944Z,100701.45
2018-11-21T06:29:43.793Z,100707.11
2018-11-21T06:32:14.763Z,100696.96
2018-11-21T06:34:43.875Z,100702.91
2018-11-21T06:37:13.187Z,100703.67
2018-11-21T06:39:42.703Z,100707.95
2018-11-21T06:42:12.345Z,100709.45
2018-11-21T06:44:42.281Z,100714.30
2018-11-21T06:47:11.730Z,100725.67
2018-11-21T06:49:40.521Z,100731.81
2018-11-21T06:52:10.603Z,100727.61
2018-11-21T06:54:39.150Z,100739.35
2018-11-21T06:57:08.064Z,100741.19
2018-11-21T06:59:38.218Z,100746.89
2018-11-21T07:02:07.297Z,100751.23
2018-11-21T07:04:36.060Z,100752.63
2018-11-21T07:07:07.563Z,100752.73
2018-11-21T07:09:37.701Z,100760.05
2018-11-21T07:12:07.290Z,100769.25
2018-11-21T07:14:36.882Z,100772.41
2018-11-21T07:17:05.482Z,100774.73
2018-11-21T07:19:34.306Z,100782.58
2018-11-21T07:22:04.765Z,100786.02
2018-11-21T07:24:34.492Z,100789.50
2018-11-21T07:27:03.054Z,100779.70
2018-11-21T07:29:34.606Z,100790.06
2018-11-21T07:32:01.246Z,100787.55
2018-11-21T07:34:30.311Z,100795.58
2018-11-21T07:36:59.985Z,100786.03
2018-11-21T07:39:29.680Z,100794.22
2018-11-21T07:41:58.658Z,100794.44
2018-11-21T07:44:28.015Z,100796.61
2018-11-21T07:47:06.944Z,100804.70
2018-11-21T07:49:36.643Z,100805.59
2018-11-21T07:52:06.358Z,100802.81
2018-11-21T07:54:35.239Z,100809.70
2018-11-21T07:57:43.196Z,100813.48
2018-11-21T08:00:57.777Z,100823.37
2018-11-21T08:03:27.974Z,100824.52
2018-11-21T08:06:17.952Z,100823.41
2018-11-21T08:08:54.378Z,100829.66
2018-11-21T08:11:42.908Z,100830.22
2018-11-21T08:14:39.266Z,100834.47
2018-11-21T08:17:20.816Z,100834.30
2018-11-21T08:20:08.231Z,100839.05
2018-11-21T08:22:58.522Z,100856.02
2018-11-21T08:25:49.773Z,100862.14
2018-11-21T08:28:26.319Z,100868.65
2018-11-21T08:30:55.109Z,100863.83
2018-11-21T08:33:23.645Z,100871.60
2018-11-21T08:35:52.543Z,100872.09
2018-11-21T08:38:21.030Z,100872.12
2018-11-21T08:40:50.273Z,100871.22
2018-11-21T08:43:19.245Z,100871.94
2018-11-21T08:45:48.623Z,100870.45
2018-11-21T08:48:18.854Z,100868.94
2018-11-21T08:50:48.284Z,100878.00
2018-11-21T08:53:17.984Z,100880.36
2018-11-21T08:55:47.616Z,100885.97
2018-11-21T08:58:16.474Z,100879.15
2018-11-21T09:00:45.595Z,100871.88
2018-11-21T09:03:14.461Z,100880.83
2018-11-21T09:05:43.517Z,100899.11
2018-11-21T09:08:13.217Z,100917.73
2018-11-21T09:10:42.526Z,100927.05
2018-11-21T09:13:11.604Z,100925.26
2018-11-21T09:15:40.042Z,100919.23
2018-11-21T09:18:08.609Z,100932.61
2018-11-21T09:20:38.079Z,100932.95
2018-11-21T09:23:06.729Z,100931.38
2018-11-21T09:25:35.262Z,100927.98
2018-11-21T09:28:03.863Z,100916.10
2018-11-21T09:30:32.958Z,100930.12
2018-11-21T09:33:02.423Z,100930.42
2018-11-21T09:35:32.131Z,100939.76
2018-11-21T09:38:00.920Z,100940.03
2018-11-21T09:40:30.736Z,100946.81
2018-11-21T09:42:59.305Z,100951.89
2018-11-21T09:45:28.638Z,100939.24
2018-11-21T09:47:57.445Z,100945.34
2018-11-21T09:50:27.951Z,100945.58
2018-11-21T09:52:56.919Z,100951.27
2018-11-21T09:55:27.167Z,100953.66
2018-11-21T09:57:55.783Z,100961.54
2018-11-21T10:01:00.733Z,100965.52
2018-11-21T10:03:31.035Z,100970.32
2018-11-21T10:06:11.925Z,100976.86
2018-11-21T10:08:46.056Z,100975.45
2018-11-21T10:11:15.882Z,100974.03
2018-11-21T10:13:46.111Z,100983.54
2018-11-21T10:16:15.424Z,100974.88
2018-11-21T10:18:46.175Z,100971.02
2018-11-21T10:21:22.181Z,100971.01
2018-11-21T10:23:51.324Z,100973.12
2018-11-21T10:26:20.882Z,100975.91
2018-11-21T10:28:50.483Z,100971.25
2018-11-21T10:31:19.001Z,100974.75
2018-11-21T10:33:47.821Z,100968.32
2018-11-21T10:36:15.992Z,100957.45
2018-11-21T10:38:44.858Z,100963.96
2018-11-21T10:41:13.395Z,100972.44
2018-11-21T10:43:42.323Z,100976.34
2018-11-21T10:46:12.064Z,100971.14
2018-11-21T10:48:40.577Z,100970.80
2018-11-21T10:51:09.697Z,100973.64
2018-11-21T10:53:39.145Z,100978.63
2018-11-21T10:56:09.055Z,100974.41
2018-11-21T10:58:38.690Z,100972.79
2018-11-21T11:01:24.828Z,100971.94
2018-11-21T11:03:59.765Z,100979.95
2018-11-21T11:06:53.925Z,100973.28
2018-11-21T11:09:47.737Z,100971.58
2018-11-21T11:12:35.855Z,100970.86
2018-11-21T11:15:22.566Z,100981.97
2018-11-21T11:18:09.104Z,100982.52
2018-11-21T11:21:05.087Z,100984.81
2018-11-21T11:23:54.945Z,100981.30
2018-11-21T11:26:57.814Z,100981.91
2018-11-21T11:29:44.024Z,100990.29
2018-11-21T11:32:34.884Z,101001.53
2018-11-21T11:35:20.998Z,101000.75
2018-11-21T11:38:11.350Z,101006.29
2018-11-21T11:40:57.185Z,101002.10
2018-11-21T11:43:46.304Z,101006.37
2018-11-21T11:46:41.885Z,100990.73
2018-11-21T11:49:30.991Z,100996.44
2018-11-21T11:52:31.141Z,100998.19
2018-11-21T11:55:21.730Z,101001.07
2018-11-21T11:58:12.789Z,101004.91
2018-11-21T12:00:57.356Z,101005.08
2018-11-21T12:03:59.550Z,101013.74
2018-11-21T12:07:02.057Z,101021.62
2018-11-21T12:09:50.519Z,101029.33
2018-11-21T12:12:41.061Z,101023.61
2018-11-21T12:15:27.317Z,101018.16
2018-11-21T12:18:19.854Z,101018.08
2018-11-21T12:21:06.333Z,101009.33
2018-11-21T12:23:51.341Z,101018.62
2018-11-21T12:26:51.300Z,101028.45
2018-11-21T12:29:37.687Z,101014.49
2018-11-21T12:32:30.355Z,101005.90
2018-11-21T12:35:24.084Z,101007.13
2018-11-21T12:38:15.720Z,101012.42
2018-11-21T12:41:18.533Z,101018.56
2018-11-21T12:44:05.359Z,101004.67
2018-11-21T12:46:51.788Z,101004.07
2018-11-21T12:49:38.254Z,100994.82
2018-11-21T12:52:25.783Z,100997.56
2018-11-21T12:55:11.888Z,101002.36
2018-11-21T12:57:58.292Z,100986.58
2018-11-21T13:00:56.357Z,100989.16
2018-11-21T13:03:44.434Z,101002.02
2018-11-21T13:06:31.395Z,101008.02
2018-11-21T13:09:12.366Z,101004.57
2018-11-21T13:11:58.856Z,101016.17
2018-11-21T13:14:41.723Z,101015.39
2018-11-21T13:17:29.615Z,101011.14
2018-11-21T13:20:19.924Z,101009.07
2018-11-21T13:23:05.979Z,101011.72
2018-11-21T13:26:08.439Z,101014.13
2018-11-21T13:28:57.554Z,101013.94
2018-11-21T13:31:44.188Z,101005.30
2018-11-21T13:34:30.783Z,101004.55
2018-11-21T13:37:17.458Z,101013.63
2018-11-21T13:40:16.911Z,101017.22
2018-11-21T13:43:13.387Z,101018.52
2018-11-21T13:46:01.418Z,101023.07
2018-11-21T13:48:56.301Z,101017.95
2018-11-21T13:51:55.970Z,101026.20
2018-11-21T13:54:51.041Z,101034.57
2018-11-21T13:57:21.105Z,101035.29
2018-11-21T14:00:00.395Z,101023.20
2018-11-21T14:02:31.737Z,101022.21
2018-11-21T14:05:03.190Z,101032.30
2018-11-21T14:07:39.456Z,101034.73
2018-11-21T14:10:10.752Z,101038.73
2018-11-21T14:12:41.661Z,101044.20
2018-11-21T14:15:25.226Z,101052.67
2018-11-21T14:18:05.177Z,101054.30
2018-11-21T14:20:36.413Z,101049.25
2018-11-21T14:23:05.714Z,101052.47
2018-11-21T14:25:34.837Z,101055.13
2018-11-21T14:28:04.853Z,101053.00
2018-11-21T14:30:37.682Z,101052.34
2018-11-21T14:33:09.436Z,101062.50
2018-11-21T14:35:39.490Z,101060.75
2018-11-21T14:38:10.139Z,101067.47
2018-11-21T14:40:38.994Z,101065.22
2018-11-21T14:43:07.702Z,101060.27
2018-11-21T14:45:37.020Z,101068.53
2018-11-21T14:48:06.619Z,101071.58
2018-11-21T14:50:39.177Z,101060.25
2018-11-21T14:53:04.923Z,101057.33
2018-11-21T14:55:38.942Z,101064.34
2018-11-21T14:58:14.655Z,101073.98
2018-11-21T15:00:43.223Z,101068.11
2018-11-21T15:03:18.360Z,101081.00
2018-11-21T15:05:45.479Z,101065.55
2018-11-21T15:08:14.955Z,101062.25
2018-11-21T15:10:43.863Z,101074.39
2018-11-21T15:13:14.099Z,101072.84
2018-11-21T15:15:42.399Z,101078.55
2018-11-21T15:18:10.754Z,101084.11
2018-11-21T15:20:39.747Z,101086.67
2018-11-21T15:23:09.339Z,101093.50
2018-11-21T15:25:40.049Z,101091.28
2018-11-21T15:28:08.682Z,101093.91
2018-11-21T15:30:38.490Z,101094.55
2018-11-21T15:33:06.858Z,101089.66
2018-11-21T15:35:36.355Z,101096.66
2018-11-21T15:38:05.194Z,101098.91
2018-11-21T15:40:34.514Z,101094.70
2018-11-21T15:43:03.263Z,101097.59
2018-11-21T15:45:32.861Z,101101.95
2018-11-21T15:48:02.990Z,101105.52
2018-11-21T15:50:32.026Z,101101.93
2018-11-21T15:53:11.009Z,101106.64
2018-11-21T15:55:39.845Z,101112.59
2018-11-21T15:58:09.254Z,101113.50
2018-11-21T16:00:39.178Z,101113.41
2018-11-21T16:03:10.308Z,101112.36
2018-11-21T16:05:38.155Z,101121.09
2018-11-21T16:08:07.083Z,101117.88
2018-11-21T16:10:43.307Z,101118.79
2018-11-21T16:13:12.376Z,101111.69
2018-11-21T16:15:45.496Z,101115.92
2018-11-21T16:18:14.076Z,101121.72
2018-11-21T16:20:42.762Z,101122.55
2018-11-21T16:23:12.083Z,101123.70
2018-11-21T16:25:41.479Z,101124.17
2018-11-21T16:28:10.095Z,101135.22
2018-11-21T16:30:57.793Z,101136.09
2018-11-21T16:33:26.075Z,101141.11
2018-11-21T16:35:55.252Z,101144.12
2018-11-21T16:38:36.973Z,101146.33
2018-11-21T16:41:06.206Z,101150.84
2018-11-21T16:43:48.158Z,101148.84
2018-11-21T16:46:17.155Z,101155.60
2018-11-21T16:48:46.801Z,101152.77
2018-11-21T16:51:15.421Z,101158.27
2018-11-21T16:53:44.321Z,101159.44
2018-11-21T16:56:14.087Z,101154.05
2018-11-21T16:58:43.081Z,101156.52
2018-11-21T17:01:12.331Z,101157.28
2018-11-21T17:03:40.938Z,101161.20
2018-11-21T17:06:09.566Z,101158.94
2018-11-21T17:08:39.425Z,101161.83
2018-11-21T17:11:08.246Z,101163.64
2018-11-21T17:13:36.809Z,101169.16
2018-11-21T17:16:05.658Z,101172.02
2018-11-21T17:18:35.530Z,101166.59
2018-11-21T17:21:05.081Z,101182.13
2018-11-21T17:23:35.225Z,101183.39
2018-11-21T17:26:04.142Z,101175.52
2018-11-21T17:28:32.685Z,101185.91
2018-11-21T17:31:01.226Z,101179.80
2018-11-21T17:33:31.388Z,101180.92
2018-11-21T17:36:00.574Z,101182.30
2018-11-21T17:38:33.710Z,101181.18
2018-11-21T17:40:58.385Z,101180.38
2018-11-21T17:43:31.482Z,101174.72
2018-11-21T17:46:04.084Z,101170.44
2018-11-21T17:48:29.562Z,101176.34
2018-11-21T17:50:58.106Z,101172.59
2018-11-21T17:53:26.974Z,101177.91
2018-11-21T17:55:55.845Z,101180.92
2018-11-21T17:58:24.645Z,101180.59
2018-11-21T18:00:53.229Z,101181.91
2018-11-21T18:03:21.830Z,101185.25
2018-11-21T18:05:50.408Z,101194.38
2018-11-21T18:08:19.161Z,101187.72
2018-11-21T18:10:47.489Z,101193.93
2018-11-21T18:13:16.775Z,101194.91
2018-11-21T18:15:46.155Z,101191.24
2018-11-21T18:18:15.003Z,101195.05
2018-11-21T18:20:48.051Z,101189.47
2018-11-21T18:23:19.056Z,101192.80
2018-11-21T18:25:48.808Z,101200.33
2018-11-21T18:28:17.749Z,101198.19
2018-11-21T18:30:46.339Z,101199.99
2018-11-21T18:33:15.676Z,101199.00
2018-11-21T18:35:44.656Z,101205.71
2018-11-21T18:38:13.700Z,101209.42
2018-11-21T18:40:42.761Z,101203.84
2018-11-21T18:43:13.582Z,101209.84
2018-11-21T18:45:43.798Z,101209.13
2018-11-21T18:48:12.500Z,101209.66
2018-11-21T18:50:41.414Z,101205.36
2018-11-21T18:53:11.344Z,101203.83
2018-11-21T18:55:42.355Z,101210.41
2018-11-21T18:58:37.523Z,101217.96
2018-11-21T19:01:10.336Z,101209.94
2018-11-21T19:03:38.871Z,101209.97
2018-11-21T19:06:07.782Z,101216.70
2018-11-21T19:08:36.611Z,101208.47
2018-11-21T19:11:06.391Z,101213.83
2018-11-21T19:13:35.052Z,101219.91
2018-11-21T19:16:04.009Z,101214.31
2018-11-21T19:18:32.877Z,101214.11
2018-11-21T19:21:01.732Z,101220.20
2018-11-21T19:23:30.637Z,101211.32
2018-11-21T19:26:09.782Z,101207.30
2018-11-21T19:28:38.159Z,101212.11
2018-11-21T19:31:06.671Z,101222.98
2018-11-21T19:33:35.814Z,101212.17
2018-11-21T19:36:05.348Z,101212.67
2018-11-21T19:38:34.014Z,101210.57
2018-11-21T19:41:03.388Z,101213.92
2018-11-21T19:43:32.850Z,101219.09
2018-11-21T19:46:01.495Z,101217.19
2018-11-21T19:48:30.811Z,101215.40
2018-11-21T19:50:59.699Z,101212.11
2018-11-21T19:53:29.173Z,101218.41
2018-11-21T19:55:58.627Z,101223.64
2018-11-21T19:58:27.815Z,101219.31
2018-11-21T20:00:58.276Z,101223.27
2018-11-21T20:03:27.026Z,101231.50
2018-11-21T20:06:10.888Z,101224.73
2018-11-21T20:08:54.458Z,101216.84
2018-11-21T20:11:29.572Z,101223.08
2018-11-21T20:13:59.414Z,101226.94
2018-11-21T20:16:36.513Z,101226.22
2018-11-21T20:19:06.305Z,101221.00
2018-11-21T20:21:34.783Z,101221.13
2018-11-21T20:24:04.120Z,101227.73
2018-11-21T20:26:36.787Z,101230.81
2018-11-21T20:29:05.396Z,101229.48
2018-11-21T20:31:43.744Z,101228.28
2018-11-21T20:34:12.523Z,101226.37
2018-11-21T20:36:42.110Z,101221.47
2018-11-21T20:39:12.314Z,101221.38
2018-11-21T20:41:43.024Z,101225.15
2018-11-21T20:44:14.201Z,101224.32
2018-11-21T20:46:55.048Z,101222.77
2018-11-21T20:49:31.408Z,101220.17
2018-11-21T20:51:59.739Z,101220.16
2018-11-21T20:54:28.371Z,101216.72
2018-11-21T20:56:57.791Z,101216.94
2018-11-21T20:59:28.564Z,101219.13
2018-11-21T21:01:57.998Z,101212.11
2018-11-21T21:04:27.414Z,101210.63
2018-11-21T21:06:56.123Z,101208.94
2018-11-21T21:09:25.292Z,101212.77
2018-11-21T21:11:54.688Z,101215.78
2018-11-21T21:14:23.516Z,101218.25
2018-11-21T21:16:58.164Z,101221.32
2018-11-21T21:19:27.553Z,101215.67
2018-11-21T21:21:57.328Z,101216.39
2018-11-21T21:24:25.898Z,101211.25
2018-11-21T21:26:55.555Z,101220.17
2018-11-21T21:29:43.372Z,101209.34
2018-11-21T21:32:22.699Z,101220.66
2018-11-21T21:34:52.547Z,101219.30
2018-11-21T21:37:26.262Z,101213.82
2018-11-21T21:39:56.338Z,101205.67
2018-11-21T21:42:27.688Z,101214.05
2018-11-21T21:44:56.692Z,101213.14
2018-11-21T21:47:32.830Z,101204.13
2018-11-21T21:50:03.654Z,101201.27
2018-11-21T21:52:33.991Z,101202.72
2018-11-21T21:55:03.092Z,101204.89
2018-11-21T21:57:34.840Z,101203.66
2018-11-21T22:00:03.632Z,101200.61
2018-11-21T22:02:32.250Z,101203.02
2018-11-21T22:05:01.088Z,101206.47
2018-11-21T22:07:29.958Z,101210.83
2018-11-21T22:09:59.258Z,101210.73
2018-11-21T22:12:28.432Z,101210.42
2018-11-21T22:14:58.142Z,101216.45
2018-11-21T22:17:27.810Z,101208.42
2018-11-21T22:19:57.331Z,101201.27
2018-11-21T22:22:26.924Z,101205.44
2018-11-21T22:24:55.436Z,101211.72
2018-11-21T22:27:23.981Z,101206.97
2018-11-21T22:29:52.520Z,101211.81
2018-11-21T22:32:22.201Z,101214.29
2018-11-21T22:34:57.862Z,101213.31
2018-11-21T22:37:26.341Z,101207.64
2018-11-21T22:39:55.218Z,101218.13
2018-11-21T22:42:24.262Z,101218.13
2018-11-21T22:44:53.333Z,101212.05
2018-11-21T22:47:22.218Z,101214.98
2018-11-21T22:49:51.237Z,101217.18
2018-11-21T22:52:20.086Z,101210.57
2018-11-21T22:54:48.662Z,101202.75
2018-11-21T22:57:17.165Z,101206.87
2018-11-21T22:59:46.824Z,101211.20
2018-11-21T23:02:22.339Z,101211.64
2018-11-21T23:04:51.229Z,101212.05
2018-11-21T23:07:20.166Z,101214.13
2018-11-21T23:09:49.576Z,101216.78
2018-11-21T23:12:18.399Z,101213.37
2018-11-21T23:15:00.661Z,101217.16
2018-11-21T23:17:30.127Z,101214.73
2018-11-21T23:19:59.019Z,101219.20
2018-11-21T23:22:32.483Z,101214.70
2018-11-21T23:24:57.351Z,101211.23
2018-11-21T23:27:26.198Z,101213.56
2018-11-21T23:29:55.539Z,101212.02
2018-11-21T23:32:24.898Z,101215.88
2018-11-21T23:35:03.159Z,101214.98
2018-11-21T23:37:32.584Z,101215.22
2018-11-21T23:40:01.173Z,101206.14
2018-11-21T23:42:30.570Z,101214.01
2018-11-21T23:45:00.498Z,101216.66
2018-11-21T23:47:29.437Z,101212.95
2018-11-21T23:49:58.830Z,101212.75
2018-11-21T23:52:29.382Z,101216.55
2018-11-21T23:54:57.967Z,101211.06
2018-11-21T23:57:26.743Z,101207.95
2018-11-21T23:59:55.646Z,101214.16
